Time;durP1;ratioP1;P1;durP2;ratioP2;P2;SDS_P1;SDS_P2;PMS_P1;PMS_P2;Temp;Humidity;BMP_temperature;BMP_pressure;BME280_temperature;BME280_humidity;BME280_pressure;Samples;Min_cycle;Max_cycle;Signal;HPM_P1;HPM_P2
2022/03/16 00:01:48;;;;;;;39.45;23.95;;;6.40;99.90;;;;;;5098212;27;20054;-80
2022/03/16 00:04:14;;;;;;;40.88;24.70;;;6.50;99.90;;;;;;5133577;27;20089;-81
2022/03/16 00:06:40;;;;;;;42.28;25.52;;;6.40;99.90;;;;;;5114955;27;20050;-80
2022/03/16 00:09:05;;;;;;;37.25;23.83;;;6.40;99.90;;;;;;5114111;27;20043;-81
2022/03/16 00:11:31;;;;;;;41.40;24.20;;;6.40;99.90;;;;;;5133174;27;20122;-80
2022/03/16 00:13:58;;;;;;;40.05;22.67;;;6.40;99.90;;;;;;5115353;27;20053;-80
2022/03/16 00:16:24;;;;;;;40.80;23.45;;;6.40;99.90;;;;;;5114528;27;20138;-80
2022/03/16 00:18:49;;;;;;;43.22;24.67;;;6.30;99.90;;;;;;5114004;27;20129;-80
2022/03/16 00:21:15;;;;;;;42.83;24.10;;;6.30;99.90;;;;;;5097803;27;20051;-80
2022/03/16 00:23:41;;;;;;;35.78;22.13;;;6.30;99.90;;;;;;5114244;27;20049;-81
2022/03/16 00:26:06;;;;;;;40.30;24.27;;;6.30;99.90;;;;;;5114353;27;20049;-80
2022/03/16 00:28:32;;;;;;;39.72;23.50;;;6.30;99.90;;;;;;5115251;27;20126;-80
2022/03/16 00:30:58;;;;;;;41.50;23.80;;;6.30;99.90;;;;;;5115508;27;20039;-80
2022/03/16 00:33:23;;;;;;;34.60;23.20;;;6.30;99.90;;;;;;5114965;27;20057;-81
2022/03/16 00:35:49;;;;;;;38.38;22.85;;;6.30;99.90;;;;;;5114816;27;20035;-81
2022/03/16 00:38:16;;;;;;;41.13;24.15;;;6.30;99.90;;;;;;5115538;27;20066;-81
2022/03/16 00:40:42;;;;;;;36.67;23.42;;;6.20;99.90;;;;;;5114973;27;20043;-81
2022/03/16 00:43:08;;;;;;;41.20;23.27;;;6.20;99.90;;;;;;5115163;27;21075;-80
2022/03/16 00:45:34;;;;;;;41.45;23.67;;;6.20;99.90;;;;;;5114836;27;20073;-80
2022/03/16 00:47:59;;;;;;;50.10;25.35;;;6.10;99.90;;;;;;5115320;27;20083;-80
2022/03/16 00:50:25;;;;;;;39.90;23.58;;;6.10;99.90;;;;;;5114774;27;20046;-81
2022/03/16 00:52:51;;;;;;;40.72;23.60;;;6.00;99.90;;;;;;5115061;27;20042;-81
2022/03/16 00:55:17;;;;;;;43.17;30.60;;;6.00;99.90;;;;;;5113547;27;20459;-81
2022/03/16 00:57:42;;;;;;;40.63;26.10;;;6.00;99.90;;;;;;5114604;27;20091;-80
2022/03/16 01:00:10;;;;;;;41.03;25.40;;;5.90;99.90;;;;;;5114217;27;20100;-80
2022/03/16 01:02:35;;;;;;;43.33;24.85;;;5.90;99.90;;;;;;5114538;27;20051;-81
2022/03/16 01:05:01;;;;;;;48.75;25.73;;;5.80;99.90;;;;;;5114859;27;20046;-81
2022/03/16 01:07:27;;;;;;;40.83;25.17;;;5.80;99.90;;;;;;5114350;27;21093;-80
2022/03/16 01:09:52;;;;;;;42.70;24.65;;;5.80;99.90;;;;;;5097113;27;20445;-81
2022/03/16 01:12:18;;;;;;;39.55;25.13;;;5.80;99.90;;;;;;5114460;27;20074;-80
2022/03/16 01:14:44;;;;;;;41.83;25.95;;;5.80;99.90;;;;;;5114444;27;20051;-80
2022/03/16 01:17:10;;;;;;;39.92;24.70;;;5.70;99.90;;;;;;5132328;27;20532;-82
2022/03/16 01:19:35;;;;;;;43.15;25.60;;;5.70;99.90;;;;;;5114447;27;20084;-81
2022/03/16 01:22:05;;;;;;;42.80;23.67;;;5.70;99.90;;;;;;5114075;27;20092;-81
2022/03/16 01:24:31;;;;;;;44.00;24.50;;;5.70;99.90;;;;;;5114127;27;20039;-81
2022/03/16 01:26:58;;;;;;;42.10;24.17;;;5.70;99.90;;;;;;5114396;27;20039;-81
2022/03/16 01:29:27;;;;;;;39.67;24.73;;;5.60;99.90;;;;;;5113661;27;20422;-80
2022/03/16 01:31:53;;;;;;;40.05;23.98;;;5.60;99.90;;;;;;5113426;27;20041;-81
2022/03/16 01:34:20;;;;;;;42.47;24.60;;;5.60;99.90;;;;;;5113338;27;20117;-81
2022/03/16 01:36:46;;;;;;;43.30;24.55;;;5.60;99.90;;;;;;5131405;27;20039;-81
2022/03/16 01:39:12;;;;;;;43.60;25.88;;;5.50;99.90;;;;;;5120677;27;20049;-80
2022/03/16 01:41:37;;;;;;;41.78;25.42;;;5.50;99.90;;;;;;5113303;27;20816;-81
2022/03/16 01:44:04;;;;;;;45.72;24.55;;;5.50;99.90;;;;;;5113855;27;20046;-80
2022/03/16 01:46:29;;;;;;;42.90;24.70;;;5.50;99.90;;;;;;5113415;27;20495;-81
2022/03/16 01:48:55;;;;;;;38.55;24.27;;;5.60;99.90;;;;;;5113685;27;20050;-81
2022/03/16 01:51:21;;;;;;;39.35;23.63;;;5.60;99.90;;;;;;5131789;27;20404;-80
2022/03/16 01:53:48;;;;;;;42.35;24.85;;;5.60;99.90;;;;;;5113670;27;20050;-81
2022/03/16 01:56:18;;;;;;;45.08;25.58;;;5.60;99.90;;;;;;5113755;27;20055;-81
2022/03/16 01:58:44;;;;;;;44.65;25.13;;;5.60;99.90;;;;;;5113820;27;20565;-81
2022/03/16 02:01:10;;;;;;;43.03;25.00;;;5.60;99.90;;;;;;5113491;27;20468;-81
2022/03/16 02:03:36;;;;;;;42.30;24.50;;;5.60;99.90;;;;;;5113582;27;20118;-81
2022/03/16 02:06:02;;;;;;;43.30;24.95;;;5.60;99.90;;;;;;5113785;27;20050;-81
2022/03/16 02:08:29;;;;;;;42.25;24.52;;;5.70;99.90;;;;;;5113691;27;20443;-80
2022/03/16 02:10:55;;;;;;;40.88;25.90;;;5.70;99.90;;;;;;5131534;27;20032;-81
2022/03/16 02:13:20;;;;;;;40.67;24.20;;;5.70;99.90;;;;;;5113238;27;20130;-81
2022/03/16 02:15:46;;;;;;;40.55;24.88;;;5.60;99.90;;;;;;5096377;27;20058;-81
2022/03/16 02:18:13;;;;;;;40.67;24.73;;;5.60;99.90;;;;;;5113628;27;20085;-81
2022/03/16 02:20:39;;;;;;;41.78;24.08;;;5.60;99.90;;;;;;5112544;27;20072;-80
2022/03/16 02:23:07;;;;;;;43.25;24.33;;;5.60;99.90;;;;;;5113042;27;20412;-81
2022/03/16 02:25:46;;;;;;;46.65;24.98;;;5.50;99.90;;;;;;5112966;27;20050;-81
2022/03/16 02:28:12;;;;;;;38.90;24.60;;;5.50;99.90;;;;;;5131662;27;20134;-81
2022/03/16 02:30:37;;;;;;;38.03;24.70;;;5.50;99.90;;;;;;5113108;27;20122;-80
2022/03/16 02:33:03;;;;;;;37.03;24.33;;;5.40;99.90;;;;;;5112554;27;20507;-81
2022/03/16 02:35:31;;;;;;;39.92;24.42;;;5.30;99.90;;;;;;5112448;27;20039;-81
2022/03/16 02:37:58;;;;;;;43.70;25.27;;;5.30;99.90;;;;;;5112796;27;20070;-81
2022/03/16 02:40:24;;;;;;;41.10;23.20;;;5.30;99.90;;;;;;5112235;27;20047;-81
2022/03/16 02:42:50;;;;;;;47.60;31.88;;;5.20;99.90;;;;;;5111398;27;20463;-81
2022/03/16 02:45:16;;;;;;;48.30;32.67;;;5.20;99.90;;;;;;5129866;27;20398;-81
2022/03/16 02:47:42;;;;;;;46.85;33.13;;;5.10;99.90;;;;;;5111006;27;20415;-81
2022/03/16 02:50:09;;;;;;;50.70;34.90;;;5.00;99.90;;;;;;5110875;27;20482;-81
2022/03/16 02:52:34;;;;;;;48.28;34.58;;;5.00;99.90;;;;;;5094087;27;20414;-80
2022/03/16 02:55:00;;;;;;;52.58;35.22;;;5.00;99.90;;;;;;5094254;27;20394;-81
2022/03/16 02:57:27;;;;;;;49.73;35.47;;;5.00;99.90;;;;;;5110905;27;20481;-82
2022/03/16 02:59:52;;;;;;;47.35;32.97;;;4.90;99.90;;;;;;5110485;27;20541;-80
2022/03/16 03:02:18;;;;;;;53.10;35.17;;;4.90;99.90;;;;;;5094456;27;20501;-81
2022/03/16 03:04:43;;;;;;;51.55;35.28;;;4.80;99.90;;;;;;5111124;27;20449;-81
2022/03/16 03:07:10;;;;;;;48.93;35.03;;;4.80;99.90;;;;;;5110779;27;20447;-81
2022/03/16 03:09:36;;;;;;;57.75;37.03;;;4.70;99.90;;;;;;5110666;27;20411;-81
2022/03/16 03:12:03;;;;;;;53.10;35.15;;;4.80;99.90;;;;;;5110554;27;20992;-81
2022/03/16 03:14:29;;;;;;;50.40;35.50;;;4.70;99.90;;;;;;5093562;27;20410;-81
2022/03/16 03:16:55;;;;;;;50.95;34.80;;;4.70;99.90;;;;;;5110403;27;20403;-81
2022/03/16 03:19:23;;;;;;;51.17;34.75;;;4.70;99.90;;;;;;5111045;27;20423;-81
2022/03/16 03:21:49;;;;;;;53.20;35.45;;;4.70;99.90;;;;;;5110542;27;20403;-81
2022/03/16 03:24:15;;;;;;;51.27;35.33;;;4.70;99.90;;;;;;5128485;27;20753;-81
2022/03/16 03:26:40;;;;;;;53.78;35.70;;;4.80;99.90;;;;;;5110617;27;20395;-81
2022/03/16 03:29:06;;;;;;;55.23;36.90;;;4.70;99.90;;;;;;5110506;27;20405;-81
2022/03/16 03:31:32;;;;;;;51.70;36.08;;;4.70;99.90;;;;;;5110413;27;20848;-81
2022/03/16 03:33:58;;;;;;;53.50;35.33;;;4.70;99.90;;;;;;5109141;27;20463;-81
2022/03/16 03:36:23;;;;;;;56.83;37.17;;;4.70;99.90;;;;;;5110412;27;20402;-81
2022/03/16 03:38:49;;;;;;;57.55;38.20;;;4.70;99.90;;;;;;5128314;27;20386;-80
2022/03/16 03:41:14;;;;;;;51.03;36.47;;;4.70;99.90;;;;;;5110125;27;20402;-81
2022/03/16 03:43:40;;;;;;;54.37;36.73;;;4.70;99.90;;;;;;5110038;27;20402;-81
2022/03/16 03:46:06;;;;;;;53.75;36.70;;;4.70;99.90;;;;;;5110796;27;20546;-81
2022/03/16 03:48:31;;;;;;;57.73;37.53;;;4.70;99.90;;;;;;5109797;27;20399;-81
2022/03/16 03:50:57;;;;;;;54.85;37.47;;;4.70;99.90;;;;;;5110384;28;20399;-80
2022/03/16 03:53:22;;;;;;;57.30;39.10;;;4.70;99.90;;;;;;5128697;28;20398;-81
2022/03/16 03:55:48;;;;;;;55.57;39.23;;;4.70;99.90;;;;;;5128377;28;20407;-81
2022/03/16 03:58:14;;;;;;;60.22;38.75;;;4.70;99.90;;;;;;5109599;28;20498;-81
2022/03/16 04:00:39;;;;;;;56.70;38.33;;;4.70;99.90;;;;;;5110203;28;20433;-81
2022/03/16 04:03:05;;;;;;;58.47;38.78;;;4.60;99.90;;;;;;5110559;28;20395;-81
2022/03/16 04:05:31;;;;;;;62.63;39.80;;;4.60;99.90;;;;;;5093177;28;20407;-81
2022/03/16 04:07:57;;;;;;;60.63;39.57;;;4.70;99.90;;;;;;5109841;28;20403;-81
2022/03/16 04:10:22;;;;;;;58.95;40.42;;;4.60;99.90;;;;;;5110450;28;20395;-81
2022/03/16 04:12:49;;;;;;;60.05;38.88;;;4.60;99.90;;;;;;5109901;28;20803;-81
2022/03/16 04:15:15;;;;;;;58.70;39.20;;;4.70;99.90;;;;;;5110059;28;20409;-81
2022/03/16 04:17:40;;;;;;;58.50;39.15;;;4.70;99.90;;;;;;5109770;28;20592;-81
2022/03/16 04:20:07;;;;;;;58.37;39.10;;;4.70;99.90;;;;;;5127327;28;20475;-80
2022/03/16 04:22:33;;;;;;;58.60;39.03;;;4.70;99.90;;;;;;5127381;28;20403;-81
2022/03/16 04:24:58;;;;;;;65.00;41.55;;;4.70;99.90;;;;;;5127293;28;20422;-81
2022/03/16 04:27:24;;;;;;;62.15;40.28;;;4.70;99.90;;;;;;5127343;28;20401;-81
2022/03/16 04:29:50;;;;;;;63.27;40.87;;;4.70;99.90;;;;;;5092844;28;20403;-81
2022/03/16 04:32:15;;;;;;;59.70;39.92;;;4.70;99.90;;;;;;5109509;28;20490;-80
2022/03/16 04:34:42;;;;;;;59.67;40.35;;;4.70;99.90;;;;;;5110026;28;20818;-81
2022/03/16 04:37:08;;;;;;;61.08;39.63;;;4.70;99.90;;;;;;5109872;28;20394;-81
2022/03/16 04:39:33;;;;;;;63.03;41.50;;;4.70;99.90;;;;;;5109843;28;20478;-81
2022/03/16 04:41:59;;;;;;;63.67;40.73;;;4.80;99.90;;;;;;5110011;28;20754;-81
2022/03/16 04:44:25;;;;;;;64.47;41.77;;;4.70;99.90;;;;;;5110463;27;20398;-81
2022/03/16 04:46:50;;;;;;;66.57;43.00;;;4.60;99.90;;;;;;5113089;27;20402;-81
2022/03/16 04:49:16;;;;;;;66.07;43.00;;;4.60;99.90;;;;;;5113848;27;20442;-81
2022/03/16 04:51:42;;;;;;;66.00;43.13;;;4.60;99.90;;;;;;5113660;27;20402;-81
2022/03/16 04:54:08;;;;;;;66.32;42.33;;;4.50;99.90;;;;;;5113513;27;21099;-81
2022/03/16 04:56:35;;;;;;;66.03;43.22;;;4.50;99.90;;;;;;5113476;27;20390;-80
2022/03/16 04:59:01;;;;;;;65.90;43.17;;;4.50;99.90;;;;;;5113205;27;20422;-81
2022/03/16 05:01:27;;;;;;;65.63;42.65;;;4.50;99.90;;;;;;5113263;27;20475;-80
2022/03/16 05:03:52;;;;;;;68.60;44.70;;;4.50;99.90;;;;;;5131575;27;20878;-80
2022/03/16 05:06:18;;;;;;;66.23;42.70;;;4.60;99.90;;;;;;5113580;27;20402;-80
2022/03/16 05:08:45;;;;;;;64.93;41.97;;;4.60;99.90;;;;;;5113010;27;21189;-80
2022/03/16 05:11:12;;;;;;;63.28;42.63;;;4.60;99.90;;;;;;5096070;27;20455;-80
2022/03/16 05:13:37;;;;;;;62.33;42.40;;;4.70;99.90;;;;;;5112956;27;20403;-80
2022/03/16 05:16:03;;;;;;;62.25;41.17;;;4.70;99.90;;;;;;5113207;27;20638;-81
2022/03/16 05:18:29;;;;;;;69.15;43.78;;;4.70;99.90;;;;;;5113127;27;20430;-80
2022/03/16 05:20:55;;;;;;;61.28;40.85;;;4.70;99.90;;;;;;5131220;27;20848;-81
2022/03/16 05:23:20;;;;;;;65.40;43.20;;;4.80;99.90;;;;;;5130869;27;20730;-80
2022/03/16 05:25:46;;;;;;;64.17;41.90;;;4.80;99.90;;;;;;5112770;27;20395;-80
2022/03/16 05:28:12;;;;;;;64.38;41.90;;;4.80;99.90;;;;;;5130897;27;20391;-80
2022/03/16 05:30:37;;;;;;;63.40;42.53;;;4.80;99.90;;;;;;5112834;27;20452;-81
2022/03/16 05:33:03;;;;;;;68.30;43.80;;;4.80;99.90;;;;;;5112735;27;20484;-80
2022/03/16 05:35:30;;;;;;;65.47;42.55;;;4.80;99.90;;;;;;5130517;27;20387;-80
2022/03/16 05:37:56;;;;;;;66.80;44.53;;;4.80;99.90;;;;;;5112301;27;20394;-81
2022/03/16 05:40:22;;;;;;;71.00;45.30;;;4.80;99.90;;;;;;5131178;27;20448;-81
2022/03/16 05:42:47;;;;;;;63.83;41.88;;;4.80;99.90;;;;;;5130863;27;20399;-81
2022/03/16 05:45:13;;;;;;;71.05;45.05;;;4.80;99.90;;;;;;5111693;27;20402;-80
2022/03/16 05:47:39;;;;;;;68.20;43.80;;;4.80;99.90;;;;;;5112380;27;21012;-81
2022/03/16 05:50:05;;;;;;;68.82;44.80;;;4.90;99.90;;;;;;5095023;27;20391;-81
2022/03/16 05:52:31;;;;;;;64.97;42.20;;;4.80;99.90;;;;;;5130623;27;20391;-81
2022/03/16 05:54:58;;;;;;;69.63;45.25;;;4.80;99.90;;;;;;5112240;27;20411;-81
2022/03/16 05:57:24;;;;;;;64.20;42.73;;;4.90;99.90;;;;;;5129723;27;20477;-81
2022/03/16 05:59:51;;;;;;;64.82;42.88;;;4.90;99.90;;;;;;5111789;27;20783;-81
2022/03/16 06:02:17;;;;;;;67.60;44.28;;;4.90;99.90;;;;;;5130414;27;20455;-81
2022/03/16 06:04:44;;;;;;;70.05;45.50;;;5.00;99.90;;;;;;5130749;27;20469;-81
2022/03/16 06:07:10;;;;;;;67.80;44.63;;;5.00;99.90;;;;;;5094944;27;20487;-81
2022/03/16 06:09:36;;;;;;;65.97;44.20;;;5.00;99.90;;;;;;5130381;27;20386;-81
2022/03/16 06:12:03;;;;;;;72.80;45.92;;;5.00;99.90;;;;;;5130042;27;20444;-81
2022/03/16 06:14:29;;;;;;;73.72;46.78;;;5.00;99.90;;;;;;5112266;27;20761;-81
2022/03/16 06:16:56;;;;;;;74.87;47.20;;;5.00;99.90;;;;;;5111644;27;20486;-81
2022/03/16 06:19:21;;;;;;;65.63;43.70;;;5.00;99.90;;;;;;5111788;27;20507;-81
2022/03/16 06:21:47;;;;;;;69.50;43.10;;;5.00;99.90;;;;;;5111770;27;20811;-81
2022/03/16 06:24:13;;;;;;;67.82;43.60;;;5.10;99.90;;;;;;5111476;27;20399;-81
2022/03/16 06:26:39;;;;;;;69.82;43.85;;;5.10;99.90;;;;;;5094839;27;20405;-81
2022/03/16 06:29:06;;;;;;;67.13;43.78;;;5.10;99.90;;;;;;5111879;27;20493;-81
2022/03/16 06:31:32;;;;;;;60.60;41.07;;;5.10;99.90;;;;;;5111656;27;20395;-81
2022/03/16 06:33:57;;;;;;;65.82;43.47;;;5.20;99.90;;;;;;5111012;27;20597;-81
2022/03/16 06:36:23;;;;;;;63.28;41.50;;;5.20;99.90;;;;;;5129927;27;20474;-80
2022/03/16 06:38:49;;;;;;;66.32;41.97;;;5.20;99.90;;;;;;5111379;27;20791;-81
2022/03/16 06:41:14;;;;;;;61.40;41.20;;;5.20;99.90;;;;;;5111198;27;21556;-81
2022/03/16 06:43:40;;;;;;;67.00;42.65;;;5.20;99.90;;;;;;5111071;27;20806;-81
2022/03/16 06:46:06;;;;;;;65.50;43.53;;;5.20;99.90;;;;;;5111576;27;20896;-81
2022/03/16 06:48:32;;;;;;;64.75;43.08;;;5.30;99.90;;;;;;5111189;27;20402;-81
2022/03/16 06:50:58;;;;;;;65.73;42.77;;;5.30;99.90;;;;;;5094352;27;20410;-81
2022/03/16 06:53:24;;;;;;;65.35;41.95;;;5.30;99.90;;;;;;5111651;27;20399;-79
2022/03/16 06:55:49;;;;;;;64.88;43.38;;;5.30;99.90;;;;;;5111066;27;20757;-81
2022/03/16 06:58:16;;;;;;;63.95;42.45;;;5.30;99.90;;;;;;5111083;27;20402;-80
2022/03/16 07:00:42;;;;;;;61.67;41.90;;;5.30;99.90;;;;;;5115310;27;20421;-79
2022/03/16 07:03:07;;;;;;;61.22;41.40;;;5.30;99.90;;;;;;5122510;27;20499;-80
2022/03/16 07:05:36;;;;;;;64.07;41.97;;;5.30;99.90;;;;;;5141949;27;20513;-80
2022/03/16 07:08:04;;;;;;;64.55;43.30;;;5.30;99.90;;;;;;5110584;27;20451;-80
2022/03/16 07:10:30;;;;;;;64.32;42.72;;;5.40;99.90;;;;;;5110640;27;20439;-80
2022/03/16 07:12:56;;;;;;;64.07;42.88;;;5.40;99.90;;;;;;5110824;28;20410;-79
2022/03/16 07:15:22;;;;;;;65.13;42.90;;;5.40;99.90;;;;;;5113471;27;20410;-80
2022/03/16 07:17:48;;;;;;;65.80;43.27;;;5.40;99.90;;;;;;5114183;27;20554;-80
2022/03/16 07:20:14;;;;;;;64.75;43.55;;;5.50;99.90;;;;;;5130694;27;20424;-80
2022/03/16 07:22:39;;;;;;;66.43;43.92;;;5.50;99.90;;;;;;5131227;27;20491;-80
2022/03/16 07:25:09;;;;;;;64.03;43.63;;;5.60;99.90;;;;;;5149694;27;20388;-79
2022/03/16 07:27:36;;;;;;;67.47;43.63;;;5.60;99.90;;;;;;5130878;27;20407;-82
2022/03/16 07:30:04;;;;;;;62.78;40.88;;;5.60;99.90;;;;;;5124249;27;20526;-81
2022/03/16 07:32:29;;;;;;;67.07;43.33;;;5.70;99.90;;;;;;5122804;27;20436;-81
2022/03/16 07:34:55;;;;;;;64.47;42.57;;;5.70;99.90;;;;;;5130911;27;20903;-80
2022/03/16 07:37:22;;;;;;;65.35;43.38;;;5.80;99.90;;;;;;5131168;27;20397;-81
2022/03/16 07:39:48;;;;;;;63.15;34.45;;;5.90;99.90;;;;;;5132303;27;20043;-81
2022/03/16 07:42:14;;;;;;;56.38;33.47;;;5.90;99.90;;;;;;5125111;27;20061;-79
2022/03/16 07:44:40;;;;;;;58.38;32.45;;;5.90;99.90;;;;;;5133892;27;20039;-80
2022/03/16 07:47:07;;;;;;;56.33;31.77;;;6.00;99.90;;;;;;5146964;27;20046;-80
2022/03/16 07:49:34;;;;;;;55.70;31.98;;;6.00;99.90;;;;;;5112061;27;20408;-80
2022/03/16 07:51:59;;;;;;;54.42;32.10;;;6.10;99.90;;;;;;5146523;27;20042;-80
2022/03/16 07:54:25;;;;;;;52.83;33.15;;;6.10;99.90;;;;;;5132099;27;20373;-80
2022/03/16 07:56:51;;;;;;;67.25;35.35;;;6.20;99.90;;;;;;5148674;27;20043;-80
2022/03/16 07:59:16;;;;;;;60.53;34.17;;;6.20;99.90;;;;;;5111172;28;20066;-80
2022/03/16 08:01:44;;;;;;;59.22;35.30;;;6.30;99.90;;;;;;5116576;27;20082;-80
2022/03/16 08:04:10;;;;;;;57.97;33.42;;;6.30;99.90;;;;;;5149260;27;20048;-80
2022/03/16 08:06:35;;;;;;;58.22;32.90;;;6.40;99.90;;;;;;5132419;27;20042;-79
2022/03/16 08:09:01;;;;;;;56.25;32.33;;;6.50;99.90;;;;;;5126568;27;20035;-80
2022/03/16 08:11:27;;;;;;;60.33;34.13;;;6.50;99.90;;;;;;5134626;27;20050;-80
2022/03/16 08:13:52;;;;;;;53.22;33.03;;;6.50;99.90;;;;;;5148371;27;20046;-80
2022/03/16 08:16:18;;;;;;;56.13;32.97;;;6.60;99.90;;;;;;5118048;28;20067;-80
2022/03/16 08:18:43;;;;;;;57.75;33.00;;;6.70;99.90;;;;;;5149705;27;20055;-80
2022/03/16 08:21:11;;;;;;;59.90;34.92;;;6.80;99.90;;;;;;5148795;27;20122;-80
2022/03/16 08:23:38;;;;;;;56.78;33.03;;;6.90;99.90;;;;;;5115460;27;20086;-80
2022/03/16 08:26:04;;;;;;;57.90;33.22;;;6.90;99.90;;;;;;5098844;27;20501;-80
2022/03/16 08:28:29;;;;;;;58.55;33.95;;;7.00;99.90;;;;;;5115485;27;20039;-80
2022/03/16 08:30:55;;;;;;;58.45;33.70;;;7.10;99.90;;;;;;5115510;27;20039;-80
2022/03/16 08:33:23;;;;;;;55.85;33.97;;;7.20;99.90;;;;;;5121384;27;20074;-80
2022/03/16 08:35:49;;;;;;;48.60;32.38;;;7.30;99.90;;;;;;5135631;27;20042;-80
2022/03/16 08:38:15;;;;;;;55.70;33.47;;;7.40;99.90;;;;;;5117525;27;20074;-80
2022/03/16 08:40:41;;;;;;;61.05;41.13;;;7.50;99.90;;;;;;5113543;27;20505;-80
2022/03/16 08:43:08;;;;;;;55.33;39.63;;;7.50;99.90;;;;;;5132309;27;20448;-80
2022/03/16 08:45:33;;;;;;;51.77;37.90;;;7.60;99.90;;;;;;5114001;27;20451;-80
2022/03/16 08:47:59;;;;;;;53.77;38.10;;;7.70;99.90;;;;;;5113829;27;20807;-80
2022/03/16 08:50:25;;;;;;;49.70;37.50;;;7.80;99.90;;;;;;5129601;27;20841;-80
2022/03/16 08:52:51;;;;;;;54.55;38.25;;;7.90;99.90;;;;;;5120988;27;20414;-80
2022/03/16 08:55:17;;;;;;;48.00;36.90;;;8.00;99.90;;;;;;5123436;27;20461;-80
2022/03/16 08:57:43;;;;;;;47.90;36.70;;;8.10;99.90;;;;;;5113316;27;20996;-80
2022/03/16 09:00:15;;;;;;;43.58;34.67;;;8.20;99.90;;;;;;5123588;27;20936;-80
2022/03/16 09:02:41;;;;;;;47.42;37.08;;;8.30;99.90;;;;;;5125711;27;20448;-80
2022/03/16 09:05:08;;;;;;;46.78;35.60;;;8.50;99.90;;;;;;5135251;27;20415;-80
2022/03/16 09:07:33;;;;;;;46.58;36.22;;;8.60;99.90;;;;;;5147908;27;20411;-81
2022/03/16 09:09:59;;;;;;;49.55;37.45;;;8.70;99.90;;;;;;5118563;27;21283;-80
2022/03/16 09:12:25;;;;;;;56.97;45.03;;;8.90;99.90;;;;;;5114933;27;20402;-81
2022/03/16 09:14:50;;;;;;;50.30;40.75;;;9.00;99.90;;;;;;5112065;27;20425;-80
2022/03/16 09:17:17;;;;;;;56.40;43.73;;;9.20;99.90;;;;;;5114865;27;20467;-81
2022/03/16 09:19:46;;;;;;;63.00;49.45;;;9.30;99.90;;;;;;5116075;27;20449;-80
2022/03/16 09:22:12;;;;;;;59.00;48.17;;;9.30;99.90;;;;;;5130943;27;20421;-80
2022/03/16 09:24:40;;;;;;;55.67;44.90;;;9.50;99.90;;;;;;5139760;27;20481;-80
2022/03/16 09:27:06;;;;;;;55.13;45.20;;;10.10;99.90;;;;;;5127306;27;20484;-80
2022/03/16 09:29:32;;;;;;;56.05;47.78;;;10.80;99.90;;;;;;5132287;27;20409;-80
2022/03/16 09:31:58;;;;;;;56.10;45.45;;;11.30;99.90;;;;;;5123662;27;20436;-80
2022/03/16 09:34:24;;;;;;;50.50;41.70;;;11.70;99.90;;;;;;5122887;27;20428;-81
2022/03/16 09:36:50;;;;;;;46.97;41.28;;;12.30;99.90;;;;;;5129129;27;20436;-81
2022/03/16 09:39:16;;;;;;;51.88;44.17;;;12.80;99.90;;;;;;5123936;27;20548;-81
2022/03/16 09:41:42;;;;;;;53.28;44.22;;;13.30;99.90;;;;;;5113362;27;20500;-81
2022/03/16 09:44:09;;;;;;;45.78;37.17;;;13.80;99.90;;;;;;5116580;27;20867;-81
2022/03/16 09:46:36;;;;;;;46.90;36.10;;;14.30;99.90;;;;;;5112894;27;20422;-80
2022/03/16 09:49:04;;;;;;;41.58;33.83;;;14.60;99.90;;;;;;5094470;27;20422;-81
2022/03/16 09:51:35;;;;;;;42.38;32.90;;;15.00;99.90;;;;;;5114490;27;20418;-81
2022/03/16 09:54:02;;;;;;;38.00;31.83;;;15.20;99.90;;;;;;5116135;27;20967;-81
2022/03/16 09:56:28;;;;;;;38.53;30.98;;;15.80;99.90;;;;;;5116785;27;20868;-81
2022/03/16 09:58:54;;;;;;;32.78;28.42;;;16.20;99.90;;;;;;5127084;27;20622;-81
2022/03/16 10:01:19;;;;;;;34.67;29.35;;;16.30;99.90;;;;;;5115830;27;20501;-81
2022/03/16 10:03:49;;;;;;;33.93;28.73;;;16.20;99.90;;;;;;5130242;27;20468;-81
2022/03/16 10:06:17;;;;;;;33.53;28.95;;;16.20;99.90;;;;;;5127770;27;21287;-81
2022/03/16 10:14:14;;;;;;;30.48;25.00;;;15.50;99.90;;;;;;5129782;27;20475;-81
2022/03/16 10:19:49;;;;;;;31.90;27.17;;;15.90;99.90;;;;;;5111290;27;20514;-81
2022/03/16 10:22:30;;;;;;;30.10;25.45;;;16.10;99.90;;;;;;5124465;27;20511;-81
2022/03/16 10:25:04;;;;;;;28.85;25.40;;;16.40;98.00;;;;;;5118202;27;21147;-81
2022/03/16 10:27:35;;;;;;;30.45;24.80;;;16.60;98.70;;;;;;5113195;27;20417;-81
2022/03/16 10:30:01;;;;;;;28.23;23.90;;;17.00;98.20;;;;;;5129436;27;20399;-81
2022/03/16 10:32:26;;;;;;;28.20;23.40;;;17.20;94.80;;;;;;5110761;27;20410;-81
2022/03/16 10:34:55;;;;;;;26.53;23.63;;;17.30;95.90;;;;;;5129257;27;20397;-81
2022/03/16 10:37:22;;;;;;;27.07;22.37;;;17.30;94.30;;;;;;5093990;27;20395;-81
2022/03/16 10:39:50;;;;;;;27.77;22.73;;;17.40;95.00;;;;;;5111344;27;20438;-81
2022/03/16 10:48:00;;;;;;;24.92;21.48;;;17.60;93.50;;;;;;5111863;27;20875;-81
2022/03/16 10:50:26;;;;;;;24.58;21.52;;;17.50;92.30;;;;;;5111754;27;20447;-81
2022/03/16 10:52:53;;;;;;;27.10;22.47;;;17.70;91.80;;;;;;5129939;27;20473;-81
2022/03/16 10:55:20;;;;;;;24.08;20.75;;;17.90;93.70;;;;;;5129975;27;20474;-82
2022/03/16 10:57:50;;;;;;;22.33;19.98;;;18.00;88.90;;;;;;5111451;27;20427;-81
2022/03/16 11:00:17;;;;;;;22.90;19.13;;;18.00;88.20;;;;;;5129589;27;20430;-81
2022/03/16 11:02:45;;;;;;;22.40;19.33;;;18.30;90.90;;;;;;5111327;27;20490;-81
2022/03/16 11:05:10;;;;;;;22.52;19.70;;;18.60;88.80;;;;;;5129583;27;20459;-81
2022/03/16 11:07:38;;;;;;;23.40;19.80;;;18.70;82.50;;;;;;5129385;27;20394;-81
2022/03/16 11:10:05;;;;;;;22.63;19.08;;;18.40;83.10;;;;;;5111355;27;20828;-81
2022/03/16 11:15:18;;;;;;;20.88;18.25;;;17.60;77.70;;;;;;5129067;27;20414;-80
2022/03/16 11:17:44;;;;;;;25.60;19.42;;;17.40;81.40;;;;;;5142678;27;20423;-81
2022/03/16 11:20:11;;;;;;;24.25;19.83;;;17.40;84.00;;;;;;5131367;27;20919;-81
2022/03/16 11:24:15;;;;;;;21.58;18.17;;;17.40;82.70;;;;;;5131081;27;20401;-80
2022/03/16 11:25:51;;;;;;;23.55;18.58;;;17.00;80.80;;;;;;5130184;27;21587;-81
2022/03/16 11:28:28;;;;;;;23.23;18.98;;;16.40;81.40;;;;;;5111020;27;20403;-81
2022/03/16 11:31:00;;;;;;;22.58;18.30;;;16.20;84.00;;;;;;5108950;27;21502;-81
2022/03/16 11:33:25;;;;;;;22.02;18.65;;;16.10;86.00;;;;;;5131419;27;20401;-81
2022/03/16 11:35:53;;;;;;;22.25;19.00;;;16.30;88.20;;;;;;5150190;27;20393;-81
2022/03/16 11:38:21;;;;;;;24.17;18.87;;;16.50;90.00;;;;;;5149754;27;20404;-81
2022/03/16 11:40:49;;;;;;;23.25;19.30;;;16.70;89.90;;;;;;5149843;27;20485;-81
2022/03/16 11:43:24;;;;;;;22.95;19.27;;;16.90;87.80;;;;;;5122486;27;20406;-81
2022/03/16 11:45:54;;;;;;;23.30;18.58;;;17.20;86.20;;;;;;5110642;27;20483;-81
2022/03/16 11:51:11;;;;;;;19.92;16.08;;;17.80;78.80;;;;;;5130194;27;20422;-81
2022/03/16 11:53:46;;;;;;;19.05;15.50;;;17.60;76.80;;;;;;5109429;28;20417;-81
2022/03/16 11:56:17;;;;;;;18.30;15.48;;;17.40;73.70;;;;;;5128523;27;20407;-81
2022/03/16 11:58:43;;;;;;;18.55;16.05;;;17.40;71.90;;;;;;5095983;28;20422;-81
2022/03/16 12:01:21;;;;;;;18.47;16.13;;;17.40;73.00;;;;;;5110490;28;20422;-81
2022/03/16 12:03:46;;;;;;;21.30;15.60;;;17.30;74.70;;;;;;5110125;28;20497;-81
2022/03/16 12:06:12;;;;;;;19.77;15.53;;;17.40;76.40;;;;;;5130172;27;20490;-81
2022/03/16 12:08:51;;;;;;;19.45;14.80;;;17.50;75.70;;;;;;5149378;27;20483;-81
2022/03/16 12:14:05;;;;;;;17.23;14.55;;;18.10;71.00;;;;;;5131038;27;20469;-81
2022/03/16 12:16:41;;;;;;;17.50;13.75;;;18.70;70.80;;;;;;5148320;27;20408;-81
2022/03/16 12:19:32;;;;;;;16.52;14.25;;;19.00;67.20;;;;;;5092671;28;20407;-81
2022/03/16 12:21:58;;;;;;;15.50;13.60;;;19.60;68.10;;;;;;5128423;28;20402;-81
2022/03/16 12:30:19;;;;;;;15.73;14.00;;;20.30;60.60;;;;;;5067492;28;20406;-81
2022/03/16 12:32:45;;;;;;;15.82;13.27;;;20.50;63.10;;;;;;5101552;28;20403;-81
2022/03/16 12:35:11;;;;;;;17.60;13.30;;;20.60;61.10;;;;;;5109872;28;20424;-81
2022/03/16 12:37:50;;;;;;;15.98;12.80;;;20.60;55.80;;;;;;5110347;27;20437;-81
2022/03/16 12:40:20;;;;;;;14.15;12.10;;;20.20;56.00;;;;;;5132219;27;20998;-80
2022/03/16 12:42:53;;;;;;;14.20;11.73;;;20.00;58.00;;;;;;5118597;27;20395;-80
2022/03/16 12:45:21;;;;;;;12.75;11.35;;;20.00;56.70;;;;;;5130439;27;20401;-79
2022/03/16 12:47:55;;;;;;;12.35;10.75;;;20.30;57.40;;;;;;5113396;28;20475;-80
2022/03/16 12:50:26;;;;;;;12.57;10.43;;;20.70;58.30;;;;;;5093724;28;20414;-80
2022/03/16 12:52:52;;;;;;;14.10;10.67;;;20.90;55.90;;;;;;5112680;27;20399;-80
2022/03/16 12:55:19;;;;;;;12.10;9.85;;;21.10;56.70;;;;;;5112550;27;20412;-80
2022/03/16 12:57:54;;;;;;;12.48;10.05;;;21.40;54.90;;;;;;5145662;27;20405;-80
2022/03/16 13:00:20;;;;;;;13.23;10.20;;;21.20;52.40;;;;;;5109954;28;20426;-80